createdAt,value
2022-11-29T00:01:11.791Z,100.00
2022-11-29T00:03:39.605Z,100.00
2022-11-29T00:06:08.625Z,100.00
2022-11-29T00:08:36.983Z,100.00
2022-11-29T00:11:06.177Z,100.00
2022-11-29T00:13:35.373Z,100.00
2022-11-29T00:16:04.711Z,100.00
2022-11-29T00:18:32.705Z,100.00
2022-11-29T00:21:01.010Z,100.00
2022-11-29T00:23:28.857Z,100.00
2022-11-29T00:25:56.658Z,100.00
2022-11-29T00:28:24.413Z,100.00
2022-11-29T00:30:53.679Z,100.00
2022-11-29T00:33:21.468Z,100.00
2022-11-29T00:35:49.278Z,100.00
2022-11-29T00:38:17.184Z,100.00
2022-11-29T00:40:44.996Z,100.00
2022-11-29T00:43:12.797Z,100.00
2022-11-29T00:45:40.697Z,100.00
2022-11-29T00:48:09.897Z,100.00
2022-11-29T00:50:37.731Z,100.00
2022-11-29T00:53:05.628Z,100.00
2022-11-29T00:55:33.482Z,100.00
2022-11-29T00:58:01.331Z,100.00
2022-11-29T01:00:29.234Z,100.00
2022-11-29T01:02:57.193Z,100.00
2022-11-29T01:05:26.366Z,100.00
2022-11-29T01:07:54.310Z,100.00
2022-11-29T01:10:22.138Z,100.00
2022-11-29T01:12:49.971Z,100.00
2022-11-29T01:15:18.240Z,100.00
2022-11-29T01:17:46.554Z,100.00
2022-11-29T01:20:15.024Z,100.00
2022-11-29T01:22:44.241Z,100.00
2022-11-29T01:25:13.386Z,100.00
2022-11-29T01:27:41.508Z,100.00
2022-11-29T01:30:11.034Z,100.00
2022-11-29T01:32:39.423Z,100.00
2022-11-29T01:35:08.394Z,100.00
2022-11-29T01:37:36.263Z,100.00
2022-11-29T01:40:06.737Z,100.00
2022-11-29T01:42:34.517Z,100.00
2022-11-29T01:45:22.332Z,100.00
2022-11-29T01:47:53.783Z,100.00
2022-11-29T01:50:22.372Z,100.00
2022-11-29T01:52:50.487Z,100.00
2022-11-29T01:55:20.169Z,100.00
2022-11-29T01:57:48.479Z,100.00
2022-11-29T02:00:21.373Z,100.00
2022-11-29T02:02:54.927Z,100.00
2022-11-29T02:05:23.144Z,100.00
2022-11-29T02:07:54.581Z,100.00
2022-11-29T02:10:33.179Z,100.00
2022-11-29T02:13:07.501Z,100.00
2022-11-29T02:15:47.283Z,100.00
2022-11-29T02:18:21.688Z,100.00
2022-11-29T02:21:17.402Z,100.00
2022-11-29T02:24:07.161Z,100.00
2022-11-29T02:27:03.733Z,100.00
2022-11-29T02:30:13.436Z,100.00
2022-11-29T02:33:25.791Z,100.00
2022-11-29T02:36:25.371Z,100.00
2022-11-29T02:39:22.923Z,100.00
2022-11-29T02:42:07.445Z,100.00
2022-11-29T02:44:47.131Z,100.00
2022-11-29T02:47:26.874Z,100.00
2022-11-29T02:50:18.430Z,100.00
2022-11-29T02:52:55.972Z,100.00
2022-11-29T02:55:30.428Z,100.00
2022-11-29T02:58:04.870Z,100.00
2022-11-29T03:00:37.278Z,100.00
2022-11-29T03:03:15.327Z,100.00
2022-11-29T03:05:51.919Z,100.00
2022-11-29T03:08:30.877Z,100.00
2022-11-29T03:11:07.646Z,100.00
2022-11-29T03:13:49.260Z,100.00
2022-11-29T03:16:28.504Z,100.00
2022-11-29T03:19:05.555Z,100.00
2022-11-29T03:21:42.583Z,100.00
2022-11-29T03:24:20.524Z,100.00
2022-11-29T03:26:52.825Z,100.00
2022-11-29T03:29:27.950Z,100.00
2022-11-29T03:32:03.172Z,100.00
2022-11-29T03:34:53.019Z,100.00
2022-11-29T03:37:32.895Z,100.00
2022-11-29T03:40:07.883Z,100.00
2022-11-29T03:42:41.602Z,100.00
2022-11-29T03:45:19.330Z,100.00
2022-11-29T03:47:55.801Z,100.00
2022-11-29T03:50:28.128Z,100.00
2022-11-29T03:53:02.802Z,100.00
2022-11-29T03:55:49.546Z,100.00
2022-11-29T03:58:44.232Z,100.00
2022-11-29T04:01:57.960Z,100.00
2022-11-29T04:05:04.576Z,100.00
2022-11-29T04:07:42.911Z,100.00
2022-11-29T04:10:20.243Z,100.00
2022-11-29T04:13:19.284Z,100.00
2022-11-29T04:16:19.844Z,100.00
2022-11-29T04:19:14.554Z,100.00
2022-11-29T04:21:59.653Z,100.00
2022-11-29T04:25:07.044Z,100.00
2022-11-29T04:28:07.323Z,100.00
2022-11-29T04:30:47.893Z,100.00
2022-11-29T04:33:39.042Z,100.00
2022-11-29T04:36:43.149Z,100.00
2022-11-29T04:39:30.399Z,100.00
2022-11-29T04:42:26.285Z,100.00
2022-11-29T04:45:12.161Z,100.00
2022-11-29T04:47:54.212Z,100.00
2022-11-29T04:50:34.311Z,100.00
2022-11-29T04:53:30.592Z,100.00
2022-11-29T04:56:09.028Z,100.00
2022-11-29T04:58:43.107Z,100.00
2022-11-29T05:01:19.734Z,100.00
2022-11-29T05:03:57.253Z,100.00
2022-11-29T05:06:30.891Z,100.00
2022-11-29T05:09:09.593Z,100.00
2022-11-29T05:11:50.593Z,100.00
2022-11-29T05:14:28.162Z,100.00
2022-11-29T05:17:08.100Z,100.00
2022-11-29T05:19:49.463Z,100.00
2022-11-29T05:22:32.175Z,100.00
2022-11-29T05:25:15.455Z,100.00
2022-11-29T05:27:48.324Z,100.00
2022-11-29T05:30:18.896Z,100.00
2022-11-29T05:32:56.978Z,100.00
2022-11-29T05:35:51.248Z,100.00
2022-11-29T05:38:40.472Z,100.00
2022-11-29T05:41:23.842Z,100.00
2022-11-29T05:44:03.326Z,100.00
2022-11-29T05:46:38.273Z,100.00
2022-11-29T05:49:17.901Z,100.00
2022-11-29T05:51:57.096Z,100.00
2022-11-29T05:54:29.300Z,100.00
2022-11-29T05:57:07.248Z,100.00
2022-11-29T05:59:39.482Z,100.00
2022-11-29T06:02:22.098Z,100.00
2022-11-29T06:05:03.929Z,100.00
2022-11-29T06:07:42.129Z,100.00
2022-11-29T06:10:15.064Z,100.00
2022-11-29T06:12:48.894Z,100.00
2022-11-29T06:15:46.582Z,100.00
2022-11-29T06:18:29.304Z,100.00
2022-11-29T06:21:06.422Z,100.00
2022-11-29T06:24:25.566Z,100.00
2022-11-29T06:27:14.809Z,100.00
2022-11-29T06:29:50.890Z,100.00
2022-11-29T06:32:30.572Z,100.00
2022-11-29T06:35:03.953Z,100.00
2022-11-29T06:37:39.094Z,100.00
2022-11-29T06:40:12.017Z,100.00
2022-11-29T06:42:39.913Z,100.00
2022-11-29T06:45:11.444Z,100.00
2022-11-29T06:47:44.658Z,100.00
2022-11-29T06:50:30.513Z,100.00
2022-11-29T06:53:09.021Z,100.00
2022-11-29T06:55:48.622Z,100.00
2022-11-29T06:58:36.287Z,100.00
2022-11-29T07:01:16.863Z,100.00
2022-11-29T07:04:02.159Z,100.00
2022-11-29T07:06:30.555Z,100.00
2022-11-29T07:09:02.108Z,100.00
2022-11-29T07:11:32.141Z,100.00
2022-11-29T07:14:00.477Z,100.00
2022-11-29T07:16:33.035Z,100.00
2022-11-29T07:19:10.519Z,100.00
2022-11-29T07:21:52.153Z,100.00
2022-11-29T07:24:35.944Z,100.00
2022-11-29T07:27:12.416Z,100.00
2022-11-29T07:29:49.815Z,100.00
2022-11-29T07:32:28.834Z,100.00
2022-11-29T07:35:07.203Z,100.00
2022-11-29T07:37:43.075Z,100.00
2022-11-29T07:40:16.283Z,100.00
2022-11-29T07:43:01.932Z,100.00
2022-11-29T07:45:32.453Z,100.00
2022-11-29T07:48:00.624Z,100.00
2022-11-29T07:50:29.826Z,100.00
2022-11-29T07:52:58.482Z,100.00
2022-11-29T07:55:27.574Z,100.00
2022-11-29T07:57:57.080Z,100.00
2022-11-29T08:00:25.012Z,100.00
2022-11-29T08:02:53.045Z,100.00
2022-11-29T08:05:20.966Z,100.00
2022-11-29T08:07:49.369Z,100.00
2022-11-29T08:10:17.882Z,100.00
2022-11-29T08:12:48.210Z,100.00
2022-11-29T08:15:17.866Z,100.00
2022-11-29T08:17:46.034Z,100.00
2022-11-29T08:20:17.647Z,100.00
2022-11-29T08:22:45.492Z,100.00
2022-11-29T08:25:13.559Z,100.00
2022-11-29T08:27:41.346Z,100.00
2022-11-29T08:30:10.037Z,100.00
2022-11-29T08:32:39.190Z,100.00
2022-11-29T08:35:07.382Z,100.00
2022-11-29T08:37:35.232Z,100.00
2022-11-29T08:40:04.614Z,100.00
2022-11-29T08:42:32.430Z,100.00
2022-11-29T08:45:00.305Z,100.00
2022-11-29T08:47:37.087Z,100.00
2022-11-29T08:50:08.363Z,100.00
2022-11-29T08:52:55.630Z,100.00
2022-11-29T08:55:25.799Z,100.00
2022-11-29T08:57:54.935Z,100.00
2022-11-29T09:00:23.148Z,100.00
2022-11-29T09:02:51.051Z,100.00
2022-11-29T09:05:20.721Z,100.00
2022-11-29T09:07:48.621Z,100.00
2022-11-29T09:10:16.431Z,100.00
2022-11-29T09:12:44.888Z,100.00
2022-11-29T09:15:13.219Z,100.00
2022-11-29T09:17:40.993Z,100.00
2022-11-29T09:20:09.896Z,100.00
2022-11-29T09:22:39.146Z,100.00
2022-11-29T09:25:08.955Z,100.00
2022-11-29T09:27:36.819Z,100.00
2022-11-29T09:30:05.452Z,100.00
2022-11-29T09:32:33.247Z,100.00
2022-11-29T09:35:01.063Z,100.00
2022-11-29T09:37:28.914Z,100.00
2022-11-29T09:39:58.069Z,100.00
2022-11-29T09:42:42.298Z,100.00
2022-11-29T09:45:14.885Z,100.00
2022-11-29T09:47:58.518Z,100.00
2022-11-29T09:50:32.951Z,100.00
2022-11-29T09:53:20.813Z,100.00
2022-11-29T09:56:06.282Z,100.00
2022-11-29T09:58:43.900Z,100.00
2022-11-29T10:01:18.951Z,100.00
2022-11-29T10:03:52.199Z,100.00
2022-11-29T10:06:25.351Z,100.00
2022-11-29T10:08:58.123Z,100.00
2022-11-29T10:11:34.229Z,100.00
2022-11-29T10:14:09.238Z,100.00
2022-11-29T10:16:44.388Z,100.00
2022-11-29T10:19:19.132Z,100.00
2022-11-29T10:21:57.190Z,100.00
2022-11-29T10:24:27.265Z,100.00
2022-11-29T10:26:56.574Z,100.00
2022-11-29T10:29:24.738Z,100.00
2022-11-29T10:31:56.700Z,100.00
2022-11-29T10:34:27.008Z,100.00
2022-11-29T10:36:59.442Z,100.00
2022-11-29T10:39:35.694Z,100.00
2022-11-29T10:42:06.537Z,100.00
2022-11-29T10:44:34.994Z,100.00
2022-11-29T10:47:10.754Z,100.00
2022-11-29T10:49:40.273Z,100.00
2022-11-29T10:52:19.361Z,100.00
2022-11-29T10:54:48.823Z,100.00
2022-11-29T10:57:20.749Z,100.00
2022-11-29T11:00:01.017Z,100.00
2022-11-29T11:02:29.658Z,100.00
2022-11-29T11:04:58.390Z,100.00
2022-11-29T11:07:30.163Z,100.00
2022-11-29T11:09:59.478Z,100.00
2022-11-29T11:12:31.424Z,100.00
2022-11-29T11:15:16.825Z,100.00
2022-11-29T11:17:57.047Z,100.00
2022-11-29T11:20:26.382Z,100.00
2022-11-29T11:22:59.730Z,100.00
2022-11-29T11:25:30.840Z,100.00
2022-11-29T11:28:15.365Z,100.00
2022-11-29T11:30:52.485Z,100.00
2022-11-29T11:33:22.321Z,100.00
2022-11-29T11:36:06.174Z,100.00
2022-11-29T11:38:34.787Z,100.00
2022-11-29T11:41:06.294Z,100.00
2022-11-29T11:43:35.869Z,100.00
2022-11-29T11:46:05.129Z,100.00
2022-11-29T11:48:36.025Z,100.00
2022-11-29T11:51:04.074Z,100.00
2022-11-29T11:53:35.765Z,100.00
2022-11-29T11:56:06.576Z,100.00
2022-11-29T11:58:39.250Z,100.00
2022-11-29T12:01:17.234Z,100.00
2022-11-29T12:03:58.618Z,100.00
2022-11-29T12:06:51.569Z,100.00
2022-11-29T12:09:40.579Z,100.00
2022-11-29T12:12:14.852Z,100.00
2022-11-29T12:14:55.164Z,100.00
2022-11-29T12:17:32.567Z,100.00
2022-11-29T12:20:14.039Z,100.00
2022-11-29T12:22:48.754Z,100.00
2022-11-29T12:25:23.662Z,100.00
2022-11-29T12:27:51.903Z,100.00
2022-11-29T12:30:21.405Z,99.54
2022-11-29T12:33:01.119Z,99.42
2022-11-29T12:36:01.645Z,98.65
2022-11-29T12:38:45.309Z,98.67
2022-11-29T12:41:25.526Z,98.59
2022-11-29T12:44:03.986Z,98.10
2022-11-29T12:46:34.035Z,98.06
2022-11-29T12:49:12.283Z,97.67
2022-11-29T12:51:47.706Z,98.06
2022-11-29T12:54:32.276Z,98.28
2022-11-29T12:57:08.530Z,99.12
2022-11-29T12:59:51.198Z,99.55
2022-11-29T13:02:33.434Z,98.98
2022-11-29T13:05:06.216Z,98.28
2022-11-29T13:07:44.859Z,98.76
2022-11-29T13:10:43.314Z,97.68
2022-11-29T13:13:21.979Z,98.50
2022-11-29T13:16:02.240Z,96.76
2022-11-29T13:18:39.346Z,98.41
2022-11-29T13:21:14.037Z,97.63
2022-11-29T13:26:39.499Z,97.49
2022-11-29T13:29:08.687Z,97.97
2022-11-29T13:31:39.932Z,97.40
2022-11-29T13:34:15.880Z,98.01
2022-11-29T13:36:59.860Z,98.29
2022-11-29T13:39:47.852Z,98.72
2022-11-29T13:42:22.652Z,98.97
2022-11-29T13:45:01.482Z,98.96
2022-11-29T13:47:30.372Z,99.50
2022-11-29T13:50:02.542Z,100.00
2022-11-29T13:52:42.208Z,99.56
2022-11-29T13:55:29.109Z,99.53
2022-11-29T13:58:19.931Z,99.34
2022-11-29T14:00:52.712Z,100.00
2022-11-29T14:03:28.770Z,99.46
2022-11-29T14:06:11.281Z,99.50
2022-11-29T14:09:17.188Z,100.00
2022-11-29T14:11:34.680Z,100.00
2022-11-29T14:14:08.700Z,100.00
2022-11-29T14:16:40.829Z,99.57
2022-11-29T14:19:31.634Z,100.00
2022-11-29T14:22:23.300Z,100.00
2022-11-29T14:25:01.271Z,100.00
2022-11-29T14:27:57.112Z,100.00
2022-11-29T14:30:48.479Z,100.00
2022-11-29T14:33:31.401Z,100.00
2022-11-29T14:36:17.613Z,100.00
2022-11-29T14:38:53.266Z,100.00
2022-11-29T14:41:28.543Z,100.00
2022-11-29T14:44:07.369Z,100.00
2022-11-29T14:46:35.311Z,99.87
2022-11-29T14:49:05.555Z,100.00
2022-11-29T14:51:35.068Z,100.00
2022-11-29T14:54:13.327Z,100.00
2022-11-29T14:56:43.430Z,100.00
2022-11-29T14:59:41.304Z,100.00
2022-11-29T15:02:24.549Z,100.00
2022-11-29T15:04:54.245Z,100.00
2022-11-29T15:07:28.665Z,100.00
2022-11-29T15:10:02.664Z,100.00
2022-11-29T15:12:36.381Z,100.00
2022-11-29T15:15:14.139Z,100.00
2022-11-29T15:17:49.674Z,100.00
2022-11-29T15:20:45.334Z,100.00
2022-11-29T15:23:17.541Z,100.00
2022-11-29T15:25:50.927Z,100.00
2022-11-29T15:28:23.003Z,100.00
2022-11-29T15:31:01.389Z,100.00
2022-11-29T15:33:30.301Z,100.00
2022-11-29T15:36:05.797Z,100.00
2022-11-29T15:38:43.466Z,100.00
2022-11-29T15:41:22.632Z,100.00
2022-11-29T15:43:54.119Z,100.00
2022-11-29T15:46:24.750Z,100.00
2022-11-29T15:48:52.577Z,100.00
2022-11-29T15:51:29.598Z,100.00
2022-11-29T15:54:12.617Z,100.00
2022-11-29T15:56:47.972Z,100.00
2022-11-29T15:59:22.597Z,100.00
2022-11-29T16:01:52.840Z,100.00
2022-11-29T16:04:22.515Z,100.00
2022-11-29T16:06:51.765Z,100.00
2022-11-29T16:09:22.363Z,100.00
2022-11-29T16:11:51.813Z,100.00
2022-11-29T16:14:24.730Z,100.00
2022-11-29T16:16:55.480Z,100.00
2022-11-29T16:19:30.069Z,100.00
2022-11-29T16:22:03.916Z,100.00
2022-11-29T16:24:35.194Z,100.00
2022-11-29T16:27:06.586Z,100.00
2022-11-29T16:29:37.925Z,100.00
2022-11-29T16:32:21.440Z,100.00
2022-11-29T16:34:49.440Z,100.00
2022-11-29T16:37:21.176Z,100.00
2022-11-29T16:39:51.919Z,100.00
2022-11-29T16:42:25.711Z,100.00
2022-11-29T16:45:23.762Z,100.00
2022-11-29T16:47:58.124Z,100.00
2022-11-29T16:50:27.560Z,100.00
2022-11-29T16:52:56.944Z,100.00
2022-11-29T16:55:25.371Z,100.00
2022-11-29T16:57:54.602Z,100.00
2022-11-29T17:00:31.067Z,100.00
2022-11-29T17:02:59.278Z,100.00
2022-11-29T17:05:27.783Z,100.00
2022-11-29T17:07:56.185Z,100.00
2022-11-29T17:10:26.382Z,100.00
2022-11-29T17:12:55.558Z,100.00
2022-11-29T17:15:23.494Z,100.00
2022-11-29T17:17:51.312Z,100.00
2022-11-29T17:20:19.510Z,100.00
2022-11-29T17:22:47.291Z,100.00
2022-11-29T17:25:15.146Z,100.00
2022-11-29T17:27:42.966Z,100.00
2022-11-29T17:30:13.477Z,100.00
2022-11-29T17:32:41.268Z,100.00
2022-11-29T17:35:09.704Z,100.00
2022-11-29T17:37:37.490Z,100.00
2022-11-29T17:40:05.876Z,100.00
2022-11-29T17:42:33.718Z,100.00
2022-11-29T17:45:01.566Z,100.00
2022-11-29T17:47:30.719Z,100.00
2022-11-29T17:49:58.908Z,100.00
2022-11-29T17:52:26.730Z,100.00
2022-11-29T17:54:54.564Z,100.00
2022-11-29T17:57:22.398Z,100.00
2022-11-29T17:59:50.204Z,100.00
2022-11-29T18:02:18.054Z,100.00
2022-11-29T18:04:48.214Z,100.00
2022-11-29T18:07:17.248Z,100.00
2022-11-29T18:09:46.776Z,100.00
2022-11-29T18:12:17.793Z,100.00
2022-11-29T18:14:45.590Z,100.00
2022-11-29T18:17:13.430Z,100.00
2022-11-29T18:19:42.227Z,100.00
2022-11-29T18:22:11.388Z,100.00
2022-11-29T18:24:43.407Z,100.00
2022-11-29T18:27:11.235Z,100.00
2022-11-29T18:29:39.466Z,100.00
2022-11-29T18:32:07.395Z,100.00
2022-11-29T18:34:35.159Z,100.00
2022-11-29T18:37:03.045Z,100.00
2022-11-29T18:39:32.220Z,100.00
2022-11-29T18:42:00.067Z,100.00
2022-11-29T18:44:29.488Z,100.00
2022-11-29T18:46:57.878Z,100.00
2022-11-29T18:49:25.679Z,100.00
2022-11-29T18:51:53.514Z,100.00
2022-11-29T18:54:21.318Z,100.00
2022-11-29T18:56:51.328Z,100.00
2022-11-29T18:59:19.184Z,100.00
2022-11-29T19:01:48.812Z,100.00
2022-11-29T19:04:18.530Z,100.00
2022-11-29T19:06:47.048Z,100.00
2022-11-29T19:09:17.157Z,100.00
2022-11-29T19:11:44.986Z,100.00
2022-11-29T19:14:14.222Z,100.00
2022-11-29T19:16:44.341Z,100.00
2022-11-29T19:19:12.855Z,100.00
2022-11-29T19:21:41.539Z,100.00
2022-11-29T19:24:14.876Z,100.00
2022-11-29T19:26:45.458Z,100.00
2022-11-29T19:29:15.135Z,100.00
2022-11-29T19:31:43.777Z,100.00
2022-11-29T19:34:12.153Z,100.00
2022-11-29T19:36:42.994Z,100.00
2022-11-29T19:39:12.832Z,100.00
2022-11-29T19:41:40.929Z,100.00
2022-11-29T19:44:09.512Z,100.00
2022-11-29T19:46:40.757Z,100.00
2022-11-29T19:49:09.927Z,100.00
2022-11-29T19:51:38.119Z,100.00
2022-11-29T19:54:07.906Z,100.00
2022-11-29T19:56:35.893Z,100.00
2022-11-29T19:59:03.943Z,100.00
2022-11-29T20:01:40.122Z,100.00
2022-11-29T20:04:12.300Z,100.00
2022-11-29T20:06:40.750Z,100.00
2022-11-29T20:09:08.686Z,100.00
2022-11-29T20:11:36.590Z,100.00
2022-11-29T20:14:06.958Z,100.00
2022-11-29T20:16:35.131Z,100.00
2022-11-29T20:19:02.941Z,100.00
2022-11-29T20:21:33.810Z,100.00
2022-11-29T20:24:04.882Z,100.00
2022-11-29T20:26:34.777Z,100.00
2022-11-29T20:29:03.104Z,100.00
2022-11-29T20:31:32.782Z,100.00
2022-11-29T20:34:01.333Z,100.00
2022-11-29T20:36:40.857Z,100.00
2022-11-29T20:39:21.637Z,100.00
2022-11-29T20:42:12.687Z,100.00
2022-11-29T20:44:47.315Z,100.00
2022-11-29T20:47:18.419Z,100.00
2022-11-29T20:49:46.614Z,100.00
2022-11-29T20:52:32.596Z,100.00
2022-11-29T20:55:02.765Z,100.00
2022-11-29T20:57:30.532Z,100.00
2022-11-29T20:59:58.353Z,100.00
2022-11-29T21:02:26.468Z,100.00
2022-11-29T21:04:54.356Z,100.00
2022-11-29T21:07:23.653Z,100.00
2022-11-29T21:09:55.435Z,100.00
2022-11-29T21:12:26.376Z,100.00
2022-11-29T21:14:54.768Z,100.00
2022-11-29T21:17:23.256Z,100.00
2022-11-29T21:19:51.613Z,100.00
2022-11-29T21:22:30.861Z,100.00
2022-11-29T21:25:11.129Z,100.00
2022-11-29T21:27:39.525Z,100.00
2022-11-29T21:30:15.226Z,100.00
2022-11-29T21:32:43.623Z,100.00
2022-11-29T21:35:11.426Z,100.00
2022-11-29T21:37:41.113Z,100.00
2022-11-29T21:40:10.482Z,100.00
2022-11-29T21:42:38.537Z,100.00
2022-11-29T21:45:13.276Z,100.00
2022-11-29T21:47:43.066Z,100.00
2022-11-29T21:50:12.014Z,100.00
2022-11-29T21:52:41.440Z,100.00
2022-11-29T21:55:10.161Z,100.00
2022-11-29T21:57:38.879Z,100.00
2022-11-29T22:00:08.137Z,100.00
2022-11-29T22:02:36.130Z,100.00
2022-11-29T22:05:04.106Z,100.00
2022-11-29T22:07:31.919Z,100.00
2022-11-29T22:10:10.038Z,100.00
2022-11-29T22:12:49.342Z,100.00
2022-11-29T22:15:24.564Z,100.00
2022-11-29T22:17:52.751Z,100.00
2022-11-29T22:20:20.745Z,100.00
2022-11-29T22:22:48.870Z,100.00
2022-11-29T22:25:18.253Z,100.00
2022-11-29T22:27:46.154Z,100.00
2022-11-29T22:30:14.295Z,100.00
2022-11-29T22:32:42.084Z,100.00
2022-11-29T22:35:10.451Z,100.00
2022-11-29T22:37:38.296Z,100.00
2022-11-29T22:40:07.877Z,100.00
2022-11-29T22:42:37.035Z,100.00
2022-11-29T22:45:05.448Z,100.00
2022-11-29T22:47:33.225Z,100.00
2022-11-29T22:50:01.092Z,100.00
2022-11-29T22:52:28.866Z,100.00
2022-11-29T22:55:01.314Z,100.00
2022-11-29T22:57:32.224Z,100.00
2022-11-29T23:00:01.353Z,100.00
2022-11-29T23:02:29.257Z,100.00
2022-11-29T23:04:57.204Z,100.00
2022-11-29T23:07:25.263Z,100.00
2022-11-29T23:09:55.053Z,100.00
2022-11-29T23:12:23.109Z,100.00
2022-11-29T23:14:56.127Z,100.00
2022-11-29T23:17:25.873Z,100.00
2022-11-29T23:19:53.679Z,100.00
2022-11-29T23:22:21.502Z,100.00
2022-11-29T23:24:49.422Z,100.00
2022-11-29T23:27:17.221Z,100.00
2022-11-29T23:29:44.977Z,100.00
2022-11-29T23:32:12.833Z,100.00
2022-11-29T23:34:41.982Z,100.00
2022-11-29T23:37:09.786Z,100.00
2022-11-29T23:39:37.582Z,100.00
2022-11-29T23:42:05.773Z,100.00
2022-11-29T23:44:33.541Z,100.00
2022-11-29T23:47:01.396Z,100.00
2022-11-29T23:49:29.203Z,100.00
2022-11-29T23:51:58.392Z,100.00
2022-11-29T23:54:26.256Z,100.00
2022-11-29T23:56:54.068Z,100.00
2022-11-29T23:59:21.843Z,100.00
